Terminal Aerodrome Forecast
Issued by NWS Billings, MT

Home | Current Version | Previous Version | Text Only | Print | Product List | Glossary On
Versions: 1 2 3 4 5 6 7 8 9 10 11 12 13 14 15 16 17 18 19 20 21 22 23 24 25 26 27 28 29 30 31 32 33
544
FTUS45 KBYZ 242321
TAFBIL
TAF
KBIL 242321Z 2500/2524 04009KT P6SM -SHRA BKN045
     FM250200 08008KT 6SM -RA SCT025 OVC035
     FM250400 05011G20KT 5SM -RA OVC025
     FM250900 05011G20KT 5SM -RASN SCT010 OVC025
     FM251200 04011G20KT 2SM -SN BR BKN010 OVC025
     FM251700 04011G20KT 6SM -RASN BR SCT010 OVC025=

USA.gov is the U.S. government's official web portal to all federal, state and local government web resources and services.